Terminal Aerodrome Forecast
Issued by NWS

Home | Current Version | Previous Version | Text Only | Print | Product List | Glossary On
Versions: 1 2 3 4 5 6 7 8 9 10 11 12
000
FTUS45 KABQ 132326
TAFFMN
TAF
KFMN 132326Z 1400/1424 28007KT P6SM SCT200
     FM140300 07004KT P6SM BKN150
     FM141400 29008KT P6SM BKN090
     FM141900 29016G26KT P6SM SCT100=

USA.gov is the U.S. government's official web portal to all federal, state and local government web resources and services.